Time;durP1;ratioP1;P1;durP2;ratioP2;P2;SDS_P1;SDS_P2;PMS_P1;PMS_P2;Temp;Humidity;BMP_temperature;BMP_pressure;BME280_temperature;BME280_humidity;BME280_pressure;Samples;Min_cycle;Max_cycle;Signal;HPM_P1;HPM_P2
2021/03/25 00:00:25;;;;;;;17.13;15.50;;;;;;;;;;5003614;28;20478;-12
2021/03/25 00:02:54;;;;;;;17.77;16.00;;;;;;;;;;5020821;28;20518;-11
2021/03/25 00:05:22;;;;;;;17.90;16.30;;;;;;;;;;5019837;28;20506;-12
2021/03/25 00:07:49;;;;;;;18.17;16.23;;;;;;;;;;5001886;28;20479;-12
2021/03/25 00:10:18;;;;;;;16.73;15.10;;;;;;;;;;4984898;28;20511;-13
2021/03/25 00:12:45;;;;;;;15.43;14.10;;;;;;;;;;4986685;28;20729;-12
2021/03/25 00:15:13;;;;;;;16.50;15.20;;;;;;;;;;5002749;28;20482;-12
2021/03/25 00:17:40;;;;;;;16.23;14.87;;;;;;;;;;5019311;28;20447;-12
2021/03/25 00:20:09;;;;;;;17.60;16.13;;;;;;;;;;5001731;28;20439;-13
2021/03/25 00:22:37;;;;;;;15.60;14.50;;;;;;;;;;4986324;28;20513;-12
2021/03/25 00:25:04;;;;;;;15.97;14.70;;;;;;;;;;5022792;28;20450;-12
2021/03/25 00:27:31;;;;;;;17.53;16.10;;;;;;;;;;4989931;28;20630;-13
2021/03/25 00:29:59;;;;;;;16.40;15.10;;;;;;;;;;5022718;28;20526;-12
2021/03/25 00:32:26;;;;;;;15.57;14.43;;;;;;;;;;5021538;28;20463;-13
2021/03/25 00:34:54;;;;;;;16.90;15.20;;;;;;;;;;4989470;28;20455;-13
2021/03/25 00:37:23;;;;;;;17.20;15.83;;;;;;;;;;5006444;28;20786;-12
2021/03/25 00:39:50;;;;;;;17.07;15.50;;;;;;;;;;5023560;28;20597;-12
2021/03/25 00:42:17;;;;;;;17.00;15.23;;;;;;;;;;5005014;28;20466;-12
2021/03/25 00:44:48;;;;;;;16.17;14.83;;;;;;;;;;5004787;28;20427;-12
2021/03/25 00:47:15;;;;;;;16.30;15.00;;;;;;;;;;5022726;28;20769;-12
2021/03/25 00:49:42;;;;;;;17.27;15.57;;;;;;;;;;5023338;28;20497;-11
2021/03/25 00:52:09;;;;;;;15.80;14.60;;;;;;;;;;5005216;28;20438;-12
2021/03/25 00:54:37;;;;;;;15.87;14.60;;;;;;;;;;5006162;28;20439;-12
2021/03/25 00:57:05;;;;;;;16.60;14.97;;;;;;;;;;5005322;28;20494;-12
2021/03/25 00:59:32;;;;;;;17.40;15.70;;;;;;;;;;5005758;28;20443;-12
2021/03/25 01:02:01;;;;;;;16.97;15.67;;;;;;;;;;5022736;28;20470;-12
2021/03/25 01:04:28;;;;;;;16.97;15.33;;;;;;;;;;5005417;28;20439;-12
2021/03/25 01:06:55;;;;;;;17.43;15.80;;;;;;;;;;5019829;28;20449;-12
2021/03/25 01:09:25;;;;;;;15.63;14.43;;;;;;;;;;5005900;28;20436;-12
2021/03/25 01:11:54;;;;;;;15.80;14.50;;;;;;;;;;5024606;28;20432;-12
2021/03/25 01:14:22;;;;;;;16.33;14.63;;;;;;;;;;5007697;28;20442;-12
2021/03/25 01:16:52;;;;;;;17.47;15.57;;;;;;;;;;5024662;28;20862;-11
2021/03/25 01:19:20;;;;;;;16.50;15.10;;;;;;;;;;5006310;28;20446;-11
2021/03/25 01:21:49;;;;;;;16.67;15.30;;;;;;;;;;4990895;28;20498;-12
2021/03/25 01:24:16;;;;;;;17.60;16.10;;;;;;;;;;5023496;28;20491;-13
2021/03/25 01:26:44;;;;;;;16.90;15.30;;;;;;;;;;5022642;28;20448;-11
2021/03/25 01:29:15;;;;;;;16.03;14.83;;;;;;;;;;5002956;28;20481;-13
2021/03/25 01:31:42;;;;;;;16.20;14.80;;;;;;;;;;4988804;28;20491;-12
2021/03/25 01:34:12;;;;;;;16.73;15.37;;;;;;;;;;5004695;28;20440;-13
2021/03/25 01:36:41;;;;;;;15.37;13.97;;;;;;;;;;5020377;28;20450;-12
2021/03/25 01:39:08;;;;;;;17.50;15.63;;;;;;;;;;5003577;28;20435;-12
2021/03/25 01:41:38;;;;;;;16.50;15.00;;;;;;;;;;4988077;28;20796;-12
2021/03/25 01:44:06;;;;;;;16.13;14.83;;;;;;;;;;5005823;28;20466;-11
2021/03/25 01:46:37;;;;;;;15.60;14.27;;;;;;;;;;5022287;28;20521;-13
2021/03/25 01:49:06;;;;;;;15.53;14.13;;;;;;;;;;5021147;28;20432;-12
2021/03/25 01:51:49;;;;;;;16.27;14.37;;;;;;;;;;5003902;28;20909;-12
2021/03/25 01:54:35;;;;;;;16.70;15.27;;;;;;;;;;5004263;28;20436;-12
2021/03/25 01:57:15;;;;;;;16.40;15.10;;;;;;;;;;5004431;28;20538;-12
2021/03/25 01:59:55;;;;;;;16.40;15.00;;;;;;;;;;4988431;28;20454;-12
2021/03/25 02:02:28;;;;;;;16.53;15.27;;;;;;;;;;5022393;28;20467;-11
2021/03/25 02:05:01;;;;;;;15.70;14.50;;;;;;;;;;5022030;28;20865;-13
2021/03/25 02:07:33;;;;;;;16.97;15.47;;;;;;;;;;4987882;28;20885;-12
2021/03/25 02:10:02;;;;;;;17.23;15.60;;;;;;;;;;5004203;28;20444;-12
2021/03/25 02:12:57;;;;;;;17.53;16.13;;;;;;;;;;5003621;28;20489;-12
2021/03/25 02:15:30;;;;;;;16.40;15.00;;;;;;;;;;5021150;28;20457;-12
2021/03/25 02:18:01;;;;;;;17.57;15.97;;;;;;;;;;5020157;28;20436;-12
2021/03/25 02:20:58;;;;;;;16.50;15.20;;;;;;;;;;4985791;28;20469;-12
2021/03/25 02:23:45;;;;;;;17.40;15.83;;;;;;;;;;5019275;28;20556;-12
2021/03/25 02:26:14;;;;;;;19.87;17.33;;;;;;;;;;5019880;28;20450;-12
2021/03/25 02:28:55;;;;;;;18.40;16.80;;;;;;;;;;5003468;28;20435;-12
2021/03/25 02:31:26;;;;;;;19.67;17.30;;;;;;;;;;5002103;28;20526;-12
2021/03/25 02:33:59;;;;;;;18.80;17.30;;;;;;;;;;5020849;28;20610;-12
2021/03/25 02:36:31;;;;;;;18.70;16.90;;;;;;;;;;4987249;28;20447;-12
2021/03/25 02:39:01;;;;;;;20.93;18.73;;;;;;;;;;5002029;28;20443;-12
2021/03/25 02:41:33;;;;;;;19.40;17.53;;;;;;;;;;4986394;28;20810;-12
2021/03/25 02:44:03;;;;;;;21.23;16.73;;;;;;;;;;4985136;28;20671;-12
2021/03/25 02:46:41;;;;;;;19.60;17.50;;;;;;;;;;5002916;28;20546;-12
2021/03/25 02:49:17;;;;;;;20.20;18.10;;;;;;;;;;5021319;28;20489;-11
2021/03/25 02:51:48;;;;;;;20.40;17.23;;;;;;;;;;5021349;28;20447;-12
2021/03/25 02:54:16;;;;;;;19.33;17.50;;;;;;;;;;5004759;28;20530;-12
2021/03/25 02:56:51;;;;;;;19.27;17.40;;;;;;;;;;5004922;28;20498;-12
2021/03/25 02:59:20;;;;;;;20.30;18.13;;;;;;;;;;5003415;28;20474;-12
2021/03/25 03:01:52;;;;;;;19.17;17.33;;;;;;;;;;5004023;28;20475;-12
2021/03/25 03:04:21;;;;;;;18.30;16.60;;;;;;;;;;5023333;28;20432;-13
2021/03/25 03:06:51;;;;;;;17.83;16.23;;;;;;;;;;5021069;28;20886;-12
2021/03/25 03:09:21;;;;;;;17.23;15.53;;;;;;;;;;5003290;28;20435;-12
2021/03/25 03:11:53;;;;;;;16.63;15.30;;;;;;;;;;5003331;28;20786;-12
2021/03/25 03:14:25;;;;;;;18.13;15.43;;;;;;;;;;5003863;28;20501;-12
2021/03/25 03:16:56;;;;;;;17.07;15.47;;;;;;;;;;4987892;28;20475;-12
2021/03/25 03:19:27;;;;;;;16.83;15.17;;;;;;;;;;5002772;28;20446;-11
2021/03/25 03:21:55;;;;;;;18.87;16.37;;;;;;;;;;5001814;28;20463;-12
2021/03/25 03:24:48;;;;;;;16.73;15.13;;;;;;;;;;4997096;28;20488;-12
2021/03/25 03:27:30;;;;;;;16.67;15.17;;;;;;;;;;4985034;28;20441;-13
2021/03/25 03:30:02;;;;;;;16.27;14.70;;;;;;;;;;4982113;28;20460;-12
2021/03/25 03:32:35;;;;;;;17.40;15.80;;;;;;;;;;4983720;28;20870;-13
2021/03/25 03:35:11;;;;;;;16.23;14.80;;;;;;;;;;4984187;28;20432;-12
2021/03/25 03:37:42;;;;;;;17.30;15.70;;;;;;;;;;4983502;28;20452;-12
2021/03/25 03:40:22;;;;;;;19.60;17.67;;;;;;;;;;4984389;28;20483;-12
2021/03/25 03:42:49;;;;;;;19.50;16.13;;;;;;;;;;4982706;28;20464;-13
2021/03/25 03:45:18;;;;;;;18.77;17.13;;;;;;;;;;4968188;28;20459;-12
2021/03/25 03:48:01;;;;;;;19.07;17.17;;;;;;;;;;4969220;28;20448;-12
2021/03/25 03:50:31;;;;;;;19.70;17.27;;;;;;;;;;4984363;28;20545;-12
2021/03/25 03:53:01;;;;;;;18.57;16.77;;;;;;;;;;5001965;28;20723;-12
2021/03/25 03:55:28;;;;;;;20.13;18.13;;;;;;;;;;4984201;28;20820;-13
2021/03/25 03:58:01;;;;;;;18.87;17.17;;;;;;;;;;4968275;28;20455;-12
2021/03/25 04:00:32;;;;;;;18.10;16.20;;;;;;;;;;5005699;28;20468;-13
2021/03/25 04:03:08;;;;;;;19.70;17.90;;;;;;;;;;5004415;28;20496;-12
2021/03/25 04:05:55;;;;;;;18.60;16.63;;;;;;;;;;5005655;28;20510;-12
2021/03/25 04:08:34;;;;;;;25.67;18.33;;;;;;;;;;5005986;28;20432;-12
2021/03/25 04:11:10;;;;;;;18.70;16.00;;;;;;;;;;4988338;28;20443;-12
2021/03/25 04:13:39;;;;;;;17.70;15.80;;;;;;;;;;4988300;28;20447;-12
2021/03/25 04:16:08;;;;;;;18.50;16.80;;;;;;;;;;4987476;28;20487;-13
2021/03/25 04:18:40;;;;;;;16.13;14.77;;;;;;;;;;5004114;28;20510;-13
2021/03/25 04:21:27;;;;;;;15.83;14.40;;;;;;;;;;5005092;28;20479;-13
2021/03/25 04:23:56;;;;;;;17.67;16.07;;;;;;;;;;5017711;28;20569;-12
2021/03/25 04:26:29;;;;;;;17.33;15.33;;;;;;;;;;5005885;28;20458;-13
2021/03/25 04:29:00;;;;;;;16.47;14.90;;;;;;;;;;5006750;28;20531;-12
2021/03/25 04:31:28;;;;;;;16.50;14.97;;;;;;;;;;5007273;28;20481;-12
2021/03/25 04:33:57;;;;;;;17.47;15.67;;;;;;;;;;5024479;28;20443;-13
2021/03/25 04:36:25;;;;;;;17.50;16.17;;;;;;;;;;5022290;28;20435;-13
2021/03/25 04:38:53;;;;;;;18.97;17.10;;;;;;;;;;5006922;28;20446;-13
2021/03/25 04:41:20;;;;;;;19.53;16.70;;;;;;;;;;5006885;28;20507;-13
2021/03/25 04:43:47;;;;;;;19.20;17.53;;;;;;;;;;5007314;28;20504;-13
2021/03/25 04:46:23;;;;;;;15.97;14.37;;;;;;;;;;5005930;28;20548;-13
2021/03/25 04:48:50;;;;;;;18.20;16.43;;;;;;;;;;5022345;28;20582;-12
2021/03/25 04:51:24;;;;;;;16.93;15.30;;;;;;;;;;5005847;28;20518;-13
2021/03/25 04:53:52;;;;;;;18.87;17.00;;;;;;;;;;5023188;28;20432;-12
2021/03/25 04:56:20;;;;;;;17.33;15.50;;;;;;;;;;5004968;28;20636;-12
2021/03/25 04:58:49;;;;;;;17.07;15.27;;;;;;;;;;5022401;28;20439;-13
2021/03/25 05:01:18;;;;;;;19.50;16.57;;;;;;;;;;5023058;28;20537;-12
2021/03/25 05:03:46;;;;;;;18.57;16.67;;;;;;;;;;5023243;28;20717;-12
2021/03/25 05:06:18;;;;;;;18.20;16.40;;;;;;;;;;5023223;28;20446;-12
2021/03/25 05:08:46;;;;;;;18.07;16.27;;;;;;;;;;5022753;28;20486;-12
2021/03/25 05:11:15;;;;;;;16.47;14.90;;;;;;;;;;5019096;28;20534;-12
2021/03/25 05:13:44;;;;;;;16.77;15.17;;;;;;;;;;5021924;28;20463;-12
2021/03/25 05:16:21;;;;;;;17.43;15.73;;;;;;;;;;5004920;28;20451;-13
2021/03/25 05:18:54;;;;;;;16.07;14.57;;;;;;;;;;5023608;28;20435;-13
2021/03/25 05:21:25;;;;;;;16.10;14.40;;;;;;;;;;5004577;28;20463;-13
2021/03/25 05:23:55;;;;;;;17.03;15.70;;;;;;;;;;5020911;28;20486;-13
2021/03/25 05:26:25;;;;;;;16.90;15.40;;;;;;;;;;5020153;28;20466;-13
2021/03/25 05:28:54;;;;;;;17.27;15.60;;;;;;;;;;5019294;28;20443;-13
2021/03/25 05:31:24;;;;;;;19.80;18.00;;;;;;;;;;5020294;28;20484;-13
2021/03/25 05:33:54;;;;;;;21.80;18.07;;;;;;;;;;5003076;28;20440;-13
2021/03/25 05:36:21;;;;;;;19.10;17.30;;;;;;;;;;5020512;28;20444;-13
2021/03/25 05:38:48;;;;;;;19.30;17.50;;;;;;;;;;5019888;28;20442;-14
2021/03/25 05:41:24;;;;;;;19.73;17.80;;;;;;;;;;5001856;28;20471;-14
2021/03/25 05:44:08;;;;;;;19.50;17.70;;;;;;;;;;5005191;28;20518;-13
2021/03/25 05:46:41;;;;;;;19.03;17.37;;;;;;;;;;4989721;28;20463;-13
2021/03/25 05:49:18;;;;;;;20.90;17.73;;;;;;;;;;4986379;28;20467;-14
2021/03/25 05:51:49;;;;;;;19.17;17.37;;;;;;;;;;4999837;28;20541;-12
2021/03/25 05:54:22;;;;;;;19.33;17.17;;;;;;;;;;5016283;28;20435;-13
2021/03/25 05:56:56;;;;;;;28.97;15.90;;;;;;;;;;5019413;28;20459;-13
2021/03/25 05:59:27;;;;;;;17.53;15.90;;;;;;;;;;5000412;28;20438;-12
2021/03/25 06:02:00;;;;;;;18.27;16.63;;;;;;;;;;5016550;28;20766;-11
2021/03/25 06:04:30;;;;;;;18.00;16.50;;;;;;;;;;5017780;28;20706;-12
2021/03/25 06:07:07;;;;;;;17.60;15.90;;;;;;;;;;5016967;28;20432;-12
2021/03/25 06:09:40;;;;;;;17.80;15.93;;;;;;;;;;5019106;28;20726;-13
2021/03/25 06:12:12;;;;;;;20.10;15.80;;;;;;;;;;5034076;28;20524;-13
2021/03/25 06:14:43;;;;;;;18.93;17.10;;;;;;;;;;5034961;28;20446;-13
2021/03/25 06:17:15;;;;;;;17.00;15.50;;;;;;;;;;5017407;28;20608;-13
2021/03/25 06:19:52;;;;;;;19.30;15.53;;;;;;;;;;5032155;28;20435;-12
2021/03/25 06:22:22;;;;;;;20.00;16.63;;;;;;;;;;5033499;28;20877;-12
2021/03/25 06:25:05;;;;;;;17.57;15.80;;;;;;;;;;5034638;28;20714;-13
2021/03/25 06:27:38;;;;;;;17.37;15.67;;;;;;;;;;5033864;28;20689;-13
2021/03/25 06:30:10;;;;;;;18.20;14.80;;;;;;;;;;5035046;28;21007;-13
2021/03/25 06:32:45;;;;;;;20.43;16.23;;;;;;;;;;5032034;28;20450;-14
2021/03/25 06:35:14;;;;;;;19.87;17.87;;;;;;;;;;5031236;28;20585;-13
2021/03/25 06:37:44;;;;;;;21.77;19.70;;;;;;;;;;5028802;28;20672;-13
2021/03/25 06:40:16;;;;;;;21.30;17.67;;;;;;;;;;5010960;28;20454;-13
2021/03/25 06:42:46;;;;;;;20.33;17.87;;;;;;;;;;5011292;28;20500;-13
2021/03/25 06:45:21;;;;;;;21.70;19.60;;;;;;;;;;5011040;28;20450;-13
2021/03/25 06:47:50;;;;;;;22.03;19.73;;;;;;;;;;5028241;28;20452;-12
2021/03/25 06:50:19;;;;;;;21.43;18.63;;;;;;;;;;5007690;28;20759;-14
2021/03/25 06:52:46;;;;;;;20.97;17.50;;;;;;;;;;5025281;28;20659;-13
2021/03/25 06:55:15;;;;;;;18.10;16.40;;;;;;;;;;5025995;28;20543;-14
2021/03/25 06:57:46;;;;;;;17.33;15.63;;;;;;;;;;5023518;28;20454;-14
2021/03/25 07:00:15;;;;;;;19.00;17.03;;;;;;;;;;5021836;28;20651;-14
2021/03/25 07:02:43;;;;;;;23.00;19.07;;;;;;;;;;5021517;28;20470;-12
2021/03/25 07:05:11;;;;;;;19.97;18.07;;;;;;;;;;5016927;28;20496;-13
2021/03/25 07:07:39;;;;;;;20.00;18.13;;;;;;;;;;5015385;28;21219;-13
2021/03/25 07:10:17;;;;;;;19.67;17.73;;;;;;;;;;5013350;28;20753;-14
2021/03/25 07:12:46;;;;;;;20.93;18.83;;;;;;;;;;4996216;28;20438;-12
2021/03/25 07:15:20;;;;;;;20.60;18.53;;;;;;;;;;4998467;28;20473;-13
2021/03/25 07:17:47;;;;;;;19.33;17.53;;;;;;;;;;5015057;28;20446;-13
2021/03/25 07:20:18;;;;;;;20.40;18.30;;;;;;;;;;5011986;28;20439;-13
2021/03/25 07:22:58;;;;;;;20.47;18.50;;;;;;;;;;4993579;28;20511;-13
2021/03/25 07:25:26;;;;;;;19.93;17.67;;;;;;;;;;5011473;28;20622;-13
2021/03/25 07:27:56;;;;;;;20.30;18.50;;;;;;;;;;5013540;28;20458;-12
2021/03/25 07:30:24;;;;;;;21.03;18.83;;;;;;;;;;4994141;28;20455;-14
2021/03/25 07:32:52;;;;;;;23.40;21.10;;;;;;;;;;4997859;28;20494;-14
2021/03/25 07:35:31;;;;;;;19.23;17.33;;;;;;;;;;4991898;28;21009;-13
2021/03/25 07:38:00;;;;;;;18.80;17.20;;;;;;;;;;4984377;28;20912;-13
2021/03/25 07:40:30;;;;;;;19.90;17.80;;;;;;;;;;4985826;28;20458;-13
2021/03/25 07:43:11;;;;;;;21.33;19.10;;;;;;;;;;5013992;28;20470;-13
2021/03/25 07:45:38;;;;;;;20.37;18.40;;;;;;;;;;4994381;28;20535;-12
2021/03/25 07:48:14;;;;;;;21.63;19.53;;;;;;;;;;5009824;28;20454;-13
2021/03/25 07:50:42;;;;;;;19.07;17.27;;;;;;;;;;5019830;28;20525;-13
2021/03/25 07:53:24;;;;;;;19.93;18.20;;;;;;;;;;5030415;28;20433;-12
2021/03/25 07:56:02;;;;;;;20.97;19.07;;;;;;;;;;4994636;28;20524;-13
2021/03/25 07:58:38;;;;;;;20.00;17.53;;;;;;;;;;4988185;28;20642;-13
2021/03/25 08:01:06;;;;;;;21.23;19.23;;;;;;;;;;4996103;28;20509;-13
2021/03/25 08:03:45;;;;;;;21.10;19.00;;;;;;;;;;5000338;28;20462;-14
2021/03/25 08:06:22;;;;;;;20.10;18.30;;;;;;;;;;4979817;28;20451;-13
2021/03/25 08:09:01;;;;;;;19.97;18.10;;;;;;;;;;5007827;28;20616;-14
2021/03/25 08:11:28;;;;;;;20.33;18.50;;;;;;;;;;4991225;28;20549;-14
2021/03/25 08:13:57;;;;;;;20.00;18.20;;;;;;;;;;4992656;28;20447;-13
2021/03/25 08:16:26;;;;;;;20.60;18.63;;;;;;;;;;4998350;28;20461;-13
2021/03/25 08:19:14;;;;;;;19.90;18.10;;;;;;;;;;4999510;28;20464;-13
2021/03/25 08:21:46;;;;;;;22.40;18.90;;;;;;;;;;4979948;28;20458;-14
2021/03/25 08:24:31;;;;;;;21.07;19.17;;;;;;;;;;5014077;28;20482;-11
2021/03/25 08:27:06;;;;;;;21.23;19.23;;;;;;;;;;4999631;28;21447;-11
2021/03/25 08:29:37;;;;;;;22.60;20.60;;;;;;;;;;4982641;28;20450;-12
2021/03/25 08:32:16;;;;;;;25.00;22.50;;;;;;;;;;4980355;28;20431;-12
2021/03/25 08:34:49;;;;;;;20.30;18.57;;;;;;;;;;4984093;28;20514;-11
2021/03/25 08:37:27;;;;;;;21.97;20.17;;;;;;;;;;4989837;28;20455;-11
2021/03/25 08:40:01;;;;;;;21.13;19.10;;;;;;;;;;5004770;28;20434;-11
2021/03/25 08:42:30;;;;;;;21.07;19.40;;;;;;;;;;5002602;28;20468;-11
2021/03/25 08:45:04;;;;;;;21.80;20.00;;;;;;;;;;4976488;28;20761;-12
2021/03/25 08:47:34;;;;;;;20.47;18.67;;;;;;;;;;4977200;28;20454;-10
2021/03/25 08:50:05;;;;;;;20.70;18.70;;;;;;;;;;4996239;28;20451;-11
2021/03/25 08:52:35;;;;;;;21.60;19.40;;;;;;;;;;4990562;28;20516;-12
2021/03/25 08:55:10;;;;;;;18.93;17.20;;;;;;;;;;5002551;28;20466;-12
2021/03/25 08:57:38;;;;;;;18.33;16.93;;;;;;;;;;5012202;28;20465;-11
2021/03/25 09:00:09;;;;;;;19.23;17.40;;;;;;;;;;5005159;28;20461;-12
2021/03/25 09:02:37;;;;;;;19.10;17.40;;;;;;;;;;4971021;28;20474;-11
2021/03/25 09:05:07;;;;;;;18.93;17.27;;;;;;;;;;4972551;28;20638;-12
2021/03/25 09:07:35;;;;;;;20.83;18.87;;;;;;;;;;4970633;28;20446;-11
2021/03/25 09:10:04;;;;;;;19.43;17.83;;;;;;;;;;4958837;28;20444;-12
2021/03/25 09:12:32;;;;;;;19.40;17.60;;;;;;;;;;4958831;28;20535;-12
2021/03/25 09:15:00;;;;;;;18.90;17.30;;;;;;;;;;4974754;28;20458;-11
2021/03/25 09:17:35;;;;;;;20.10;18.23;;;;;;;;;;4969132;28;21390;-12
2021/03/25 09:20:07;;;;;;;18.80;17.10;;;;;;;;;;4972516;28;20483;-11
2021/03/25 09:22:36;;;;;;;18.60;17.03;;;;;;;;;;5001160;28;20975;-13
2021/03/25 09:25:36;;;;;;;18.47;16.60;;;;;;;;;;5001180;28;21224;-11
2021/03/25 09:28:11;;;;;;;18.80;17.20;;;;;;;;;;4927841;29;20426;-12
2021/03/25 09:30:41;;;;;;;17.60;16.10;;;;;;;;;;4976661;28;20471;-12
2021/03/25 09:33:27;;;;;;;18.50;17.07;;;;;;;;;;4987350;28;20446;-13
2021/03/25 09:35:57;;;;;;;15.93;14.60;;;;;;;;;;4985570;28;20439;-13
2021/03/25 09:38:26;;;;;;;16.73;15.20;;;;;;;;;;4976556;28;20460;-11
2021/03/25 09:40:55;;;;;;;17.73;16.33;;;;;;;;;;4959150;28;20439;-11
2021/03/25 09:43:48;;;;;;;16.60;15.40;;;;;;;;;;4960089;28;20468;-11
2021/03/25 09:46:34;;;;;;;17.40;16.00;;;;;;;;;;4959382;28;20455;-11
2021/03/25 09:49:16;;;;;;;15.60;14.30;;;;;;;;;;4994201;28;20466;-12
2021/03/25 09:51:44;;;;;;;14.67;13.77;;;;;;;;;;5008092;28;20441;-11
2021/03/25 09:54:20;;;;;;;14.33;13.30;;;;;;;;;;4984409;28;20782;-10
2021/03/25 09:56:47;;;;;;;14.57;13.37;;;;;;;;;;5007425;28;20446;-11
2021/03/25 09:59:29;;;;;;;13.53;12.23;;;;;;;;;;4994815;28;20923;-10
2021/03/25 10:01:58;;;;;;;12.57;11.67;;;;;;;;;;4983588;28;20488;-11
2021/03/25 10:04:32;;;;;;;11.90;11.10;;;;;;;;;;4993362;28;21156;-11
2021/03/25 10:07:14;;;;;;;11.30;10.50;;;;;;;;;;4981412;28;20589;-11
2021/03/25 10:10:05;;;;;;;12.27;11.10;;;;;;;;;;4982738;28;20631;-11
2021/03/25 10:13:14;;;;;;;11.80;10.80;;;;;;;;;;4988176;28;20461;-10
2021/03/25 10:15:52;;;;;;;10.90;10.20;;;;;;;;;;5004077;28;20526;-11
2021/03/25 10:18:37;;;;;;;10.27;9.57;;;;;;;;;;5000052;28;20542;-11
2021/03/25 10:21:06;;;;;;;11.20;10.40;;;;;;;;;;4995567;28;20473;-10
2021/03/25 10:23:35;;;;;;;10.57;9.87;;;;;;;;;;4992820;28;20502;-11
2021/03/25 10:26:13;;;;;;;11.20;10.50;;;;;;;;;;4975714;28;20538;-11
2021/03/25 10:28:42;;;;;;;11.70;10.93;;;;;;;;;;4991774;28;20892;-11
2021/03/25 10:31:15;;;;;;;12.37;11.40;;;;;;;;;;4998977;28;20488;-12
2021/03/25 10:33:42;;;;;;;11.50;10.70;;;;;;;;;;4985505;28;21146;-12
2021/03/25 10:36:11;;;;;;;11.80;10.90;;;;;;;;;;4997600;28;20438;-13
2021/03/25 10:38:42;;;;;;;12.27;11.13;;;;;;;;;;4992689;28;20902;-12
2021/03/25 10:41:16;;;;;;;11.37;10.47;;;;;;;;;;4988542;28;20935;-12
2021/03/25 10:43:48;;;;;;;11.07;10.40;;;;;;;;;;4987677;28;20799;-13
2021/03/25 10:46:27;;;;;;;11.73;10.60;;;;;;;;;;4999661;28;21001;-12
2021/03/25 10:49:01;;;;;;;10.83;9.97;;;;;;;;;;5003758;28;20453;-12
2021/03/25 10:51:32;;;;;;;10.73;10.00;;;;;;;;;;5018197;28;20761;-12
2021/03/25 10:54:05;;;;;;;12.40;11.40;;;;;;;;;;4994666;28;20451;-13
2021/03/25 10:56:37;;;;;;;11.53;10.73;;;;;;;;;;4977668;28;20457;-13
2021/03/25 10:59:07;;;;;;;10.87;10.13;;;;;;;;;;4986521;28;20684;-12
2021/03/25 11:01:35;;;;;;;10.43;9.70;;;;;;;;;;4990008;28;20442;-12
2021/03/25 11:04:15;;;;;;;11.33;10.43;;;;;;;;;;4996794;28;20478;-11
2021/03/25 11:06:48;;;;;;;12.37;11.37;;;;;;;;;;4988923;28;20507;-12
2021/03/25 11:09:19;;;;;;;11.17;10.27;;;;;;;;;;4986844;28;20585;-12
2021/03/25 11:11:51;;;;;;;11.37;10.40;;;;;;;;;;4984319;28;20482;-13
2021/03/25 11:14:49;;;;;;;11.50;10.83;;;;;;;;;;4982194;28;20467;-12
2021/03/25 11:20:29;;;;;;;11.50;10.73;;;;;;;;;;5018805;28;20451;-13
2021/03/25 11:22:57;;;;;;;12.10;11.20;;;;;;;;;;5044508;28;20584;-11
2021/03/25 11:25:26;;;;;;;11.33;10.40;;;;;;;;;;5057168;28;20452;-11
2021/03/25 11:28:00;;;;;;;11.37;10.47;;;;;;;;;;5054722;28;20443;-12
2021/03/25 11:30:29;;;;;;;10.90;10.03;;;;;;;;;;5059527;28;20506;-12
2021/03/25 11:32:57;;;;;;;11.73;10.83;;;;;;;;;;5058939;28;20463;-12
2021/03/25 11:35:27;;;;;;;10.33;9.53;;;;;;;;;;5063955;28;20436;-13
2021/03/25 11:37:55;;;;;;;10.33;9.30;;;;;;;;;;5054976;28;20449;-12
2021/03/25 11:40:25;;;;;;;10.17;9.40;;;;;;;;;;5021643;28;20451;-13
2021/03/25 11:43:08;;;;;;;10.00;9.40;;;;;;;;;;5038113;28;20601;-12
2021/03/25 11:45:39;;;;;;;10.40;9.70;;;;;;;;;;5040381;28;20516;-11
2021/03/25 11:48:17;;;;;;;10.50;9.70;;;;;;;;;;5060501;28;20459;-11
2021/03/25 11:50:46;;;;;;;10.70;10.00;;;;;;;;;;5055953;28;20474;-11
2021/03/25 11:53:29;;;;;;;10.70;9.97;;;;;;;;;;5060105;28;20456;-12
2021/03/25 11:55:55;;;;;;;9.63;9.03;;;;;;;;;;5058040;28;20439;-11
2021/03/25 11:58:24;;;;;;;11.90;10.80;;;;;;;;;;5060832;28;20466;-12
2021/03/25 12:00:56;;;;;;;11.30;10.40;;;;;;;;;;5038441;28;20432;-11
2021/03/25 12:03:28;;;;;;;10.00;9.30;;;;;;;;;;5062134;28;20491;-14
2021/03/25 12:05:55;;;;;;;10.50;9.80;;;;;;;;;;5061645;28;20430;-14
2021/03/25 12:08:30;;;;;;;10.83;10.03;;;;;;;;;;5042308;28;20441;-14
2021/03/25 12:11:02;;;;;;;13.17;12.27;;;;;;;;;;5064943;28;20730;-14
2021/03/25 12:13:29;;;;;;;13.90;12.90;;;;;;;;;;5064387;28;21099;-14
2021/03/25 12:15:56;;;;;;;13.00;12.00;;;;;;;;;;5066350;28;20473;-13
2021/03/25 12:18:25;;;;;;;12.63;11.83;;;;;;;;;;5066550;28;20493;-14
2021/03/25 12:20:55;;;;;;;11.53;10.60;;;;;;;;;;5063438;28;20457;-14
2021/03/25 12:23:23;;;;;;;12.47;11.40;;;;;;;;;;5054495;28;20477;-14
2021/03/25 12:25:52;;;;;;;12.07;10.73;;;;;;;;;;5064623;28;20469;-11
2021/03/25 12:28:19;;;;;;;11.50;10.57;;;;;;;;;;5064452;28;20654;-11
2021/03/25 12:30:46;;;;;;;10.70;9.90;;;;;;;;;;5062106;28;20720;-11
2021/03/25 12:33:20;;;;;;;11.47;10.37;;;;;;;;;;5050382;28;21124;-12
2021/03/25 12:35:48;;;;;;;11.80;10.93;;;;;;;;;;5082614;28;20441;-14
2021/03/25 12:38:16;;;;;;;12.30;11.33;;;;;;;;;;5072959;28;20433;-14
2021/03/25 12:40:43;;;;;;;11.23;10.43;;;;;;;;;;5090561;28;20468;-14
2021/03/25 12:43:11;;;;;;;12.07;11.13;;;;;;;;;;5071629;28;20500;-14
2021/03/25 12:45:40;;;;;;;11.53;10.73;;;;;;;;;;5085811;28;20485;-14
2021/03/25 12:48:07;;;;;;;11.37;10.57;;;;;;;;;;5052502;28;20753;-14
2021/03/25 12:50:35;;;;;;;10.57;9.90;;;;;;;;;;5066651;28;20466;-14
2021/03/25 12:53:03;;;;;;;10.53;9.87;;;;;;;;;;5090497;28;20478;-14
2021/03/25 12:55:31;;;;;;;11.80;10.80;;;;;;;;;;5050171;28;21421;-12
2021/03/25 12:57:59;;;;;;;11.87;11.00;;;;;;;;;;5057515;28;21020;-12
2021/03/25 13:00:31;;;;;;;10.60;9.90;;;;;;;;;;5062971;28;20441;-11
2021/03/25 13:02:59;;;;;;;10.77;9.97;;;;;;;;;;5040691;28;20516;-11
2021/03/25 13:05:26;;;;;;;12.07;11.20;;;;;;;;;;5062663;28;20467;-11
2021/03/25 13:07:53;;;;;;;11.13;10.27;;;;;;;;;;5026258;28;20457;-13
2021/03/25 13:10:20;;;;;;;10.50;9.80;;;;;;;;;;5049172;28;20445;-12
2021/03/25 13:12:49;;;;;;;10.90;9.90;;;;;;;;;;5066486;28;20627;-12
2021/03/25 13:15:19;;;;;;;10.40;9.80;;;;;;;;;;5064741;28;21204;-13
2021/03/25 13:17:46;;;;;;;10.30;9.50;;;;;;;;;;5064952;28;20489;-12
2021/03/25 13:20:14;;;;;;;10.03;9.43;;;;;;;;;;5047990;28;21028;-12
2021/03/25 13:22:41;;;;;;;10.93;10.23;;;;;;;;;;5065529;28;20466;-13
2021/03/25 13:25:09;;;;;;;9.97;9.40;;;;;;;;;;5064750;28;20638;-13
2021/03/25 13:27:36;;;;;;;10.87;10.10;;;;;;;;;;5058102;28;21086;-12
2021/03/25 13:30:05;;;;;;;10.00;9.20;;;;;;;;;;5046121;28;20445;-13
2021/03/25 13:32:32;;;;;;;10.30;9.60;;;;;;;;;;5044804;28;20462;-11
2021/03/25 13:34:59;;;;;;;10.57;9.87;;;;;;;;;;5048912;28;20798;-12
2021/03/25 13:37:26;;;;;;;10.13;9.37;;;;;;;;;;5054385;28;20460;-11
2021/03/25 13:39:53;;;;;;;10.77;9.97;;;;;;;;;;5043527;28;20444;-12
2021/03/25 13:42:21;;;;;;;10.53;9.80;;;;;;;;;;5043399;28;20457;-12
2021/03/25 13:44:48;;;;;;;10.37;9.67;;;;;;;;;;5042686;28;20553;-12
2021/03/25 13:47:16;;;;;;;9.80;9.00;;;;;;;;;;5039309;28;20495;-12
2021/03/25 13:49:43;;;;;;;9.97;9.27;;;;;;;;;;5043861;28;20446;-12
2021/03/25 13:52:10;;;;;;;10.10;9.47;;;;;;;;;;5039591;28;20516;-11
2021/03/25 13:54:37;;;;;;;10.00;9.30;;;;;;;;;;5046152;28;20473;-12
2021/03/25 13:57:05;;;;;;;9.50;8.90;;;;;;;;;;5047035;28;20552;-13
2021/03/25 13:59:32;;;;;;;11.20;10.40;;;;;;;;;;5038524;28;20443;-13
2021/03/25 14:01:59;;;;;;;11.03;10.20;;;;;;;;;;5038310;28;20877;-12
2021/03/25 14:04:27;;;;;;;10.97;10.10;;;;;;;;;;5039081;28;20900;-13
2021/03/25 14:06:54;;;;;;;10.27;9.40;;;;;;;;;;5039885;28;20447;-12
2021/03/25 14:09:22;;;;;;;9.80;9.10;;;;;;;;;;5043889;28;20446;-12
2021/03/25 14:11:49;;;;;;;9.87;9.10;;;;;;;;;;5039482;28;20460;-12
2021/03/25 14:14:16;;;;;;;10.00;9.33;;;;;;;;;;5044866;28;20436;-12
2021/03/25 14:16:43;;;;;;;9.80;9.27;;;;;;;;;;5029594;28;20520;-11
2021/03/25 14:19:10;;;;;;;9.00;8.50;;;;;;;;;;5043754;28;20450;-12
2021/03/25 14:21:38;;;;;;;9.80;9.20;;;;;;;;;;5040950;28;20446;-12
2021/03/25 14:24:05;;;;;;;9.90;9.00;;;;;;;;;;5045546;28;20624;-12
2021/03/25 14:26:32;;;;;;;10.17;9.27;;;;;;;;;;5027961;28;20438;-12
2021/03/25 14:29:02;;;;;;;9.17;8.47;;;;;;;;;;5049320;28;20509;-12
2021/03/25 14:31:31;;;;;;;10.43;9.70;;;;;;;;;;5048952;28;20512;-13
2021/03/25 14:33:58;;;;;;;8.90;8.33;;;;;;;;;;5048438;28;20465;-13
2021/03/25 14:36:25;;;;;;;10.20;9.20;;;;;;;;;;5046134;28;20441;-12
2021/03/25 14:38:53;;;;;;;10.47;9.57;;;;;;;;;;5051221;28;20488;-13
2021/03/25 14:41:20;;;;;;;10.40;9.60;;;;;;;;;;5059205;28;20468;-13
2021/03/25 14:43:47;;;;;;;9.53;8.77;;;;;;;;;;5057190;28;21096;-12
2021/03/25 14:46:14;;;;;;;10.70;9.80;;;;;;;;;;5046427;28;20607;-12